createdAt,value
2018-02-02T00:01:11.577Z,11.30
2018-02-02T00:03:38.955Z,10.83
2018-02-02T00:06:06.353Z,10.87
2018-02-02T00:08:33.764Z,11.07
2018-02-02T00:11:01.169Z,11.10
2018-02-02T00:13:28.551Z,10.77
2018-02-02T00:15:55.956Z,10.70
2018-02-02T00:18:23.317Z,10.83
2018-02-02T00:20:50.738Z,10.40
2018-02-02T00:23:18.165Z,10.83
2018-02-02T00:25:45.537Z,11.07
2018-02-02T00:28:13.032Z,10.90
2018-02-02T00:30:40.535Z,10.27
2018-02-02T00:33:07.988Z,10.10
2018-02-02T00:35:35.406Z,10.00
2018-02-02T00:38:02.785Z,10.13
2018-02-02T00:40:30.146Z,10.27
2018-02-02T00:42:57.546Z,9.73
2018-02-02T00:45:25.131Z,9.90
2018-02-02T00:47:52.542Z,10.23
2018-02-02T00:50:20.007Z,9.43
2018-02-02T00:52:47.422Z,9.73
2018-02-02T00:55:14.822Z,9.13
2018-02-02T00:57:42.245Z,9.83
2018-02-02T01:00:09.584Z,9.60
2018-02-02T01:02:36.950Z,9.70
2018-02-02T01:05:04.391Z,9.63
2018-02-02T01:07:31.811Z,9.40
2018-02-02T01:09:59.178Z,9.40
2018-02-02T01:12:26.553Z,9.20
2018-02-02T01:14:53.946Z,9.20
2018-02-02T01:17:21.359Z,9.17
2018-02-02T01:19:48.764Z,9.13
2018-02-02T01:22:16.126Z,8.67
2018-02-02T01:24:43.525Z,8.60
2018-02-02T01:27:10.964Z,8.97
2018-02-02T01:29:38.336Z,9.07
2018-02-02T01:32:05.760Z,8.87
2018-02-02T01:34:33.110Z,9.03
2018-02-02T01:37:00.480Z,9.27
2018-02-02T01:39:27.881Z,8.10
2018-02-02T01:41:55.384Z,8.83
2018-02-02T01:44:22.770Z,9.07
2018-02-02T01:46:50.218Z,8.47
2018-02-02T01:49:17.639Z,8.10
2018-02-02T01:51:45.047Z,8.20
2018-02-02T01:54:12.476Z,8.40
2018-02-02T01:56:39.832Z,8.40
2018-02-02T01:59:07.202Z,9.13
2018-02-02T02:01:34.599Z,7.87
2018-02-02T02:04:02.063Z,8.03
2018-02-02T02:06:29.460Z,8.60
2018-02-02T02:08:56.876Z,8.63
2018-02-02T02:11:24.265Z,8.47
2018-02-02T02:13:51.626Z,8.43
2018-02-02T02:16:19.030Z,9.03
2018-02-02T02:18:46.465Z,8.50
2018-02-02T02:21:13.875Z,8.50
2018-02-02T02:23:41.404Z,8.30
2018-02-02T02:26:08.770Z,8.10
2018-02-02T02:28:36.136Z,8.27
2018-02-02T02:31:03.524Z,8.63
2018-02-02T02:33:30.914Z,8.20
2018-02-02T02:35:58.271Z,8.30
2018-02-02T02:38:25.771Z,8.00
2018-02-02T02:40:53.258Z,7.70
2018-02-02T02:43:20.625Z,7.87
2018-02-02T02:45:47.994Z,8.17
2018-02-02T02:48:15.414Z,7.80
2018-02-02T02:50:42.775Z,7.40
2018-02-02T02:53:10.167Z,7.60
2018-02-02T02:55:37.510Z,8.00
2018-02-02T02:58:04.898Z,7.53
2018-02-02T03:00:32.300Z,7.80
2018-02-02T03:02:59.771Z,7.43
2018-02-02T03:05:27.122Z,8.07
2018-02-02T03:07:54.498Z,8.00
2018-02-02T03:10:21.951Z,7.50
2018-02-02T03:12:49.355Z,7.53
2018-02-02T03:15:16.735Z,7.63
2018-02-02T03:17:44.131Z,7.97
2018-02-02T03:20:11.582Z,7.97
2018-02-02T03:22:38.925Z,8.00
2018-02-02T03:25:06.317Z,7.43
2018-02-02T03:27:33.654Z,7.80
2018-02-02T03:30:01.045Z,7.90
2018-02-02T03:32:28.446Z,7.33
2018-02-02T03:34:55.854Z,7.67
2018-02-02T03:37:23.243Z,8.23
2018-02-02T03:39:50.582Z,7.20
2018-02-02T03:42:17.972Z,8.57
2018-02-02T03:44:45.327Z,7.73
2018-02-02T03:47:12.738Z,7.33
2018-02-02T03:49:40.077Z,7.63
2018-02-02T03:52:07.453Z,7.77
2018-02-02T03:54:34.851Z,8.13
2018-02-02T03:57:02.201Z,7.73
2018-02-02T03:59:29.621Z,7.30
2018-02-02T04:01:56.973Z,7.87
2018-02-02T04:04:24.393Z,8.23
2018-02-02T04:06:51.758Z,7.37
2018-02-02T04:09:19.147Z,7.70
2018-02-02T04:11:46.523Z,7.40
2018-02-02T04:14:13.867Z,7.73
2018-02-02T04:16:41.258Z,7.73
2018-02-02T04:19:08.614Z,7.33
2018-02-02T04:21:35.955Z,7.73
2018-02-02T04:24:03.350Z,8.00
2018-02-02T04:26:30.729Z,7.80
2018-02-02T04:28:58.118Z,7.93
2018-02-02T04:31:25.570Z,8.07
2018-02-02T04:33:52.968Z,8.50
2018-02-02T04:36:20.379Z,7.80
2018-02-02T04:38:47.789Z,9.30
2018-02-02T04:41:15.224Z,17.17
2018-02-02T04:43:42.698Z,16.90
2018-02-02T04:46:10.131Z,10.37
2018-02-02T04:48:37.572Z,9.47
2018-02-02T04:51:04.965Z,9.50
2018-02-02T04:53:32.448Z,9.77
2018-02-02T04:55:59.862Z,9.23
2018-02-02T04:58:27.336Z,9.60
2018-02-02T05:00:54.787Z,9.23
2018-02-02T05:03:22.169Z,9.43
2018-02-02T05:05:49.551Z,10.80
2018-02-02T05:08:16.996Z,10.07
2018-02-02T05:10:44.430Z,10.80
2018-02-02T05:13:11.827Z,10.60
2018-02-02T05:15:39.271Z,10.77
2018-02-02T05:18:06.694Z,10.87
2018-02-02T05:20:34.117Z,10.00
2018-02-02T05:23:01.516Z,10.47
2018-02-02T05:25:28.906Z,9.20
2018-02-02T05:27:56.381Z,9.43
2018-02-02T05:30:23.751Z,9.10
2018-02-02T05:32:51.141Z,9.40
2018-02-02T05:35:18.560Z,9.07
2018-02-02T05:37:45.980Z,9.80
2018-02-02T05:40:13.378Z,10.00
2018-02-02T05:42:40.814Z,10.60
2018-02-02T05:45:08.261Z,10.10
2018-02-02T05:47:35.644Z,10.77
2018-02-02T05:50:03.085Z,10.90
2018-02-02T05:52:30.482Z,10.43
2018-02-02T05:54:58.007Z,10.20
2018-02-02T05:57:25.407Z,10.50
2018-02-02T05:59:52.875Z,11.13
2018-02-02T06:02:20.281Z,10.30
2018-02-02T06:04:47.689Z,11.13
2018-02-02T06:07:15.206Z,10.43
2018-02-02T06:09:42.638Z,10.87
2018-02-02T06:12:10.070Z,10.53
2018-02-02T06:14:37.474Z,10.43
2018-02-02T06:17:04.922Z,9.57
2018-02-02T06:19:32.308Z,9.70
2018-02-02T06:22:00.096Z,9.33
2018-02-02T06:24:27.552Z,9.43
2018-02-02T06:26:54.977Z,9.77
2018-02-02T06:29:35.602Z,10.37
2018-02-02T06:32:03.173Z,9.87
2018-02-02T06:34:30.817Z,9.57
2018-02-02T06:36:58.375Z,9.33
2018-02-02T06:39:26.689Z,8.87
2018-02-02T06:41:55.264Z,8.97
2018-02-02T06:44:23.397Z,9.60
2018-02-02T06:46:51.067Z,9.33
2018-02-02T06:49:18.752Z,10.43
2018-02-02T06:51:48.196Z,10.20
2018-02-02T06:54:16.950Z,10.00
2018-02-02T06:56:44.557Z,10.17
2018-02-02T06:59:12.347Z,9.80
2018-02-02T07:01:42.965Z,10.73
2018-02-02T07:04:12.545Z,10.60
2018-02-02T07:06:43.053Z,10.50
2018-02-02T07:09:19.287Z,10.40
2018-02-02T07:11:46.990Z,10.37
2018-02-02T07:14:14.686Z,10.53
2018-02-02T07:16:42.660Z,10.43
2018-02-02T07:19:10.302Z,10.97
2018-02-02T07:21:38.059Z,10.37
2018-02-02T07:24:05.642Z,11.53
2018-02-02T07:26:36.520Z,10.53
2018-02-02T07:29:04.214Z,10.63
2018-02-02T07:31:32.687Z,10.10
2018-02-02T07:34:00.365Z,10.50
2018-02-02T07:36:28.428Z,10.40
2018-02-02T07:38:56.364Z,10.67
2018-02-02T07:54:34.747Z,9.93
2018-02-02T07:57:02.525Z,9.87
2018-02-02T07:59:30.338Z,9.97
2018-02-02T08:01:59.559Z,9.37
2018-02-02T08:04:27.455Z,9.93
2018-02-02T08:06:54.884Z,9.70
2018-02-02T08:09:22.328Z,9.93
2018-02-02T08:11:49.854Z,9.63
2018-02-02T08:14:17.506Z,9.97
2018-02-02T08:16:44.974Z,10.63
2018-02-02T08:19:12.392Z,10.40
2018-02-02T08:21:39.896Z,10.10
2018-02-02T08:24:07.266Z,10.30
2018-02-02T08:26:34.798Z,10.40
2018-02-02T08:29:02.254Z,10.00
2018-02-02T08:31:29.897Z,10.60
2018-02-02T08:33:57.335Z,10.03
2018-02-02T08:36:24.832Z,10.00
2018-02-02T08:38:52.292Z,9.13
2018-02-02T08:41:19.683Z,9.90
2018-02-02T08:43:47.133Z,9.97
2018-02-02T08:46:14.542Z,9.83
2018-02-02T08:48:42.085Z,11.13
2018-02-02T08:51:09.636Z,9.93
2018-02-02T08:53:37.127Z,10.03
2018-02-02T08:56:04.624Z,10.60
2018-02-02T08:58:32.067Z,10.00
2018-02-02T09:00:59.667Z,10.53
2018-02-02T09:03:27.135Z,11.27
2018-02-02T09:05:54.752Z,10.73
2018-02-02T09:08:22.298Z,10.50
2018-02-02T09:10:49.689Z,10.23
2018-02-02T09:13:17.181Z,11.07
2018-02-02T09:15:44.709Z,10.90
2018-02-02T09:18:12.176Z,11.33
2018-02-02T09:20:39.692Z,11.00
2018-02-02T09:23:07.244Z,12.07
2018-02-02T09:25:34.722Z,11.43
2018-02-02T09:28:02.415Z,11.30
2018-02-02T09:30:29.929Z,11.83
2018-02-02T09:32:57.497Z,12.23
2018-02-02T09:35:24.960Z,12.17
2018-02-02T09:37:52.358Z,12.93
2018-02-02T09:40:20.181Z,12.63
2018-02-02T09:42:47.670Z,12.13
2018-02-02T09:45:15.203Z,12.70
2018-02-02T09:47:42.638Z,12.40
2018-02-02T09:50:10.035Z,12.50
2018-02-02T09:52:37.490Z,12.47
2018-02-02T09:55:04.949Z,12.40
2018-02-02T09:57:32.357Z,12.37
2018-02-02T09:59:59.839Z,12.63
2018-02-02T10:02:27.298Z,12.37
2018-02-02T10:04:54.763Z,12.90
2018-02-02T10:07:22.167Z,13.00
2018-02-02T10:09:49.541Z,12.13
2018-02-02T10:12:16.952Z,12.43
2018-02-02T10:14:44.386Z,12.70
2018-02-02T10:17:11.780Z,13.43
2018-02-02T10:19:39.251Z,12.77
2018-02-02T10:22:06.642Z,13.27
2018-02-02T10:24:34.284Z,12.93
2018-02-02T10:27:01.964Z,13.97
2018-02-02T10:29:29.388Z,13.27
2018-02-02T10:31:56.846Z,13.70
2018-02-02T10:34:24.663Z,13.67
2018-02-02T10:36:52.164Z,14.03
2018-02-02T10:39:19.627Z,13.33
2018-02-02T10:41:47.068Z,13.43
2018-02-02T10:44:14.500Z,13.90
2018-02-02T10:46:41.915Z,13.67
2018-02-02T10:49:09.366Z,13.27
2018-02-02T10:51:36.814Z,13.17
2018-02-02T10:54:04.290Z,13.80
2018-02-02T10:56:31.710Z,13.57
2018-02-02T10:58:59.188Z,12.77
2018-02-02T11:01:26.652Z,12.97
2018-02-02T11:03:54.121Z,13.00
2018-02-02T11:06:21.623Z,12.50
2018-02-02T11:08:49.195Z,12.40
2018-02-02T11:11:16.736Z,12.20
2018-02-02T11:13:44.171Z,12.40
2018-02-02T11:16:11.619Z,12.10
2018-02-02T11:18:39.122Z,13.30
2018-02-02T11:21:06.625Z,11.83
2018-02-02T11:23:34.233Z,12.37
2018-02-02T11:26:04.835Z,11.67
2018-02-02T11:28:32.255Z,11.70
2018-02-02T11:30:59.801Z,11.00
2018-02-02T11:33:27.160Z,11.33
2018-02-02T11:35:54.634Z,11.27
2018-02-02T11:38:22.083Z,11.13
2018-02-02T11:40:49.555Z,10.87
2018-02-02T11:43:18.049Z,11.20
2018-02-02T11:45:45.496Z,10.33
2018-02-02T11:48:12.932Z,10.60
2018-02-02T11:50:40.501Z,10.60
2018-02-02T11:53:07.920Z,10.43
2018-02-02T11:55:35.326Z,10.87
2018-02-02T11:58:02.850Z,10.23
2018-02-02T12:00:30.338Z,9.97
2018-02-02T12:02:57.768Z,10.03
2018-02-02T12:05:25.192Z,9.90
2018-02-02T12:07:52.675Z,9.60
2018-02-02T12:10:20.108Z,9.63
2018-02-02T12:12:47.621Z,9.47
2018-02-02T12:15:15.084Z,9.00
2018-02-02T12:17:42.567Z,9.13
2018-02-02T12:20:10.026Z,8.57
2018-02-02T12:22:41.480Z,8.10
2018-02-02T12:25:08.873Z,8.40
2018-02-02T12:27:36.348Z,7.80
2018-02-02T12:30:03.775Z,7.80
2018-02-02T12:32:31.215Z,7.80
2018-02-02T12:34:58.594Z,7.27
2018-02-02T12:37:26.037Z,7.50
2018-02-02T12:39:53.435Z,6.83
2018-02-02T12:42:20.833Z,7.00
2018-02-02T12:44:48.252Z,7.50
2018-02-02T12:47:15.836Z,6.33
2018-02-02T12:49:43.210Z,6.73
2018-02-02T12:52:10.651Z,6.70
2018-02-02T12:54:38.135Z,6.27
2018-02-02T12:57:05.570Z,6.13
2018-02-02T12:59:32.985Z,6.40
2018-02-02T13:02:02.049Z,6.00
2018-02-02T13:04:29.566Z,5.73
2018-02-02T13:06:56.966Z,5.37
2018-02-02T13:09:24.407Z,5.57
2018-02-02T13:11:51.915Z,6.33
2018-02-02T13:14:19.303Z,5.17
2018-02-02T13:16:46.693Z,5.53
2018-02-02T13:19:14.166Z,5.60
2018-02-02T13:21:41.631Z,5.07
2018-02-02T13:24:09.129Z,4.83
2018-02-02T13:26:36.554Z,5.17
2018-02-02T13:29:03.990Z,4.80
2018-02-02T13:31:31.404Z,4.90
2018-02-02T13:33:58.874Z,5.03
2018-02-02T13:36:26.532Z,4.53
2018-02-02T13:38:53.914Z,4.63
2018-02-02T13:41:21.330Z,4.67
2018-02-02T13:43:48.750Z,4.43
2018-02-02T13:46:16.207Z,4.60
2018-02-02T13:48:43.645Z,4.70
2018-02-02T13:51:11.055Z,4.50
2018-02-02T13:53:38.536Z,4.27
2018-02-02T13:56:06.172Z,3.83
2018-02-02T13:58:33.620Z,4.23
2018-02-02T14:01:01.063Z,4.43
2018-02-02T14:03:28.570Z,4.37
2018-02-02T14:05:56.118Z,5.07
2018-02-02T14:08:23.542Z,4.57
2018-02-02T14:10:51.000Z,4.50
2018-02-02T14:13:18.422Z,5.03
2018-02-02T14:15:45.970Z,5.37
2018-02-02T14:18:13.393Z,4.90
2018-02-02T14:20:40.863Z,4.60
2018-02-02T14:23:08.307Z,4.90
2018-02-02T14:25:35.723Z,4.67
2018-02-02T14:28:03.159Z,4.80
2018-02-02T14:30:30.679Z,4.60
2018-02-02T14:32:58.103Z,4.40
2018-02-02T14:35:25.514Z,4.33
2018-02-02T14:37:52.927Z,4.50
2018-02-02T14:40:20.326Z,4.27
2018-02-02T14:42:47.829Z,5.00
2018-02-02T14:45:15.317Z,4.90
2018-02-02T14:47:42.815Z,5.60
2018-02-02T14:50:10.411Z,5.30
2018-02-02T14:52:37.858Z,5.60
2018-02-02T14:55:05.310Z,5.47
2018-02-02T14:57:32.778Z,5.40
2018-02-02T15:00:00.170Z,5.50
2018-02-02T15:02:27.678Z,5.40
2018-02-02T15:04:55.145Z,5.63
2018-02-02T15:07:22.585Z,5.40
2018-02-02T15:09:50.042Z,5.10
2018-02-02T15:12:17.717Z,5.73
2018-02-02T15:14:45.302Z,5.40
2018-02-02T15:17:12.907Z,5.50
2018-02-02T15:19:41.061Z,5.07
2018-02-02T15:22:08.568Z,5.33
2018-02-02T15:24:36.060Z,5.10
2018-02-02T15:27:03.793Z,5.60
2018-02-02T15:29:33.234Z,5.10
2018-02-02T15:32:00.700Z,5.40
2018-02-02T15:34:28.196Z,4.90
2018-02-02T15:36:55.986Z,4.47
2018-02-02T15:39:23.648Z,5.30
2018-02-02T15:41:51.095Z,4.73
2018-02-02T15:44:18.543Z,5.03
2018-02-02T15:46:46.086Z,5.10
2018-02-02T15:49:13.716Z,5.13
2018-02-02T15:51:41.348Z,4.93
2018-02-02T15:54:09.098Z,4.50
2018-02-02T15:56:36.794Z,4.67
2018-02-02T15:59:04.462Z,4.80
2018-02-02T16:01:32.057Z,4.90
2018-02-02T16:03:59.438Z,5.07
2018-02-02T16:06:27.214Z,4.80
2018-02-02T16:08:54.763Z,4.27
2018-02-02T16:11:22.257Z,4.90
2018-02-02T16:13:49.688Z,4.70
2018-02-02T16:16:17.146Z,4.47
2018-02-02T16:18:44.562Z,4.30
2018-02-02T16:21:12.049Z,4.50
2018-02-02T16:23:40.403Z,4.50
2018-02-02T16:26:07.875Z,3.93
2018-02-02T16:28:35.377Z,4.83
2018-02-02T16:31:02.858Z,4.90
2018-02-02T16:33:30.313Z,4.53
2018-02-02T16:35:57.763Z,4.80
2018-02-02T16:38:25.163Z,4.67
2018-02-02T16:40:52.617Z,4.63
2018-02-02T16:43:19.999Z,4.47
2018-02-02T16:45:47.402Z,4.40
2018-02-02T16:48:14.802Z,4.00
2018-02-02T16:50:42.179Z,4.17
2018-02-02T16:53:09.763Z,4.30
2018-02-02T16:55:37.208Z,4.00
2018-02-02T16:58:04.619Z,4.70
2018-02-02T17:00:32.015Z,3.90
2018-02-02T17:02:59.426Z,4.03
2018-02-02T17:05:26.856Z,4.17
2018-02-02T17:07:54.296Z,3.90
2018-02-02T17:10:21.700Z,3.80
2018-02-02T17:12:51.005Z,3.83
2018-02-02T17:15:19.046Z,4.20
2018-02-02T17:17:46.584Z,3.83
2018-02-02T17:20:13.988Z,3.60
2018-02-02T17:22:41.404Z,4.60
2018-02-02T17:25:08.853Z,4.73
2018-02-02T17:27:36.288Z,4.00
2018-02-02T17:30:03.725Z,4.50
2018-02-02T17:32:31.229Z,4.20
2018-02-02T17:34:58.670Z,3.90
2018-02-02T17:37:26.066Z,3.47
2018-02-02T17:39:53.504Z,3.80
2018-02-02T17:42:20.883Z,3.47
2018-02-02T17:44:48.284Z,3.10
2018-02-02T17:47:15.697Z,3.87
2018-02-02T17:49:43.154Z,3.50
2018-02-02T17:52:10.556Z,2.97
2018-02-02T17:54:38.018Z,3.43
2018-02-02T17:57:05.408Z,3.37
2018-02-02T17:59:32.812Z,3.27
2018-02-02T18:02:00.322Z,3.10
2018-02-02T18:04:27.709Z,3.07
2018-02-02T18:06:55.132Z,2.93
2018-02-02T18:09:22.521Z,3.20
2018-02-02T18:11:49.903Z,2.90
2018-02-02T18:14:17.361Z,2.93
2018-02-02T18:16:44.869Z,3.00
2018-02-02T18:19:12.287Z,2.87
2018-02-02T18:21:39.730Z,3.07
2018-02-02T18:24:07.182Z,2.73
2018-02-02T18:26:34.669Z,2.70
2018-02-02T18:29:02.075Z,2.90
2018-02-02T18:31:29.480Z,2.83
2018-02-02T18:33:56.990Z,2.80
2018-02-02T18:36:24.415Z,2.77
2018-02-02T18:38:51.854Z,2.80
2018-02-02T18:41:19.326Z,2.97
2018-02-02T18:43:46.748Z,2.57
2018-02-02T18:46:14.186Z,3.20
2018-02-02T18:48:41.610Z,2.60
2018-02-02T18:51:09.042Z,2.90
2018-02-02T18:53:36.476Z,2.97
2018-02-02T18:56:03.945Z,2.80
2018-02-02T18:58:31.383Z,2.73
2018-02-02T19:00:58.812Z,2.70
2018-02-02T19:03:26.252Z,2.67
2018-02-02T19:05:53.687Z,2.57
2018-02-02T19:08:21.126Z,2.67
2018-02-02T19:10:48.578Z,2.50
2018-02-02T19:13:15.985Z,2.33
2018-02-02T19:15:43.429Z,2.30
2018-02-02T19:18:10.849Z,2.40
2018-02-02T19:20:38.303Z,2.73
2018-02-02T19:23:05.707Z,2.50
2018-02-02T19:25:33.135Z,2.40
2018-02-02T19:28:00.525Z,2.50
2018-02-02T19:30:27.970Z,2.53
2018-02-02T19:32:55.384Z,2.40
2018-02-02T19:35:23.479Z,2.20
2018-02-02T19:37:50.897Z,2.20
2018-02-02T19:40:18.290Z,2.07
2018-02-02T19:42:45.756Z,2.07
2018-02-02T19:45:13.165Z,2.33
2018-02-02T19:47:40.917Z,2.00
2018-02-02T19:50:08.314Z,2.17
2018-02-02T19:52:35.758Z,2.20
2018-02-02T19:55:03.172Z,2.20
2018-02-02T19:57:30.646Z,2.17
2018-02-02T19:59:58.097Z,2.20
2018-02-02T20:02:25.550Z,2.00
2018-02-02T20:04:53.021Z,2.07
2018-02-02T20:07:20.430Z,2.00
2018-02-02T20:09:47.826Z,2.07
2018-02-02T20:12:15.282Z,1.90
2018-02-02T20:14:42.693Z,2.13
2018-02-02T20:17:10.157Z,2.00
2018-02-02T20:19:37.582Z,2.20
2018-02-02T20:22:05.033Z,1.97
2018-02-02T20:24:32.445Z,2.20
2018-02-02T20:26:59.897Z,2.17
2018-02-02T20:29:27.474Z,1.93
2018-02-02T20:31:54.885Z,1.97
2018-02-02T20:34:22.273Z,1.93
2018-02-02T20:36:49.671Z,1.80
2018-02-02T20:39:17.078Z,1.73
2018-02-02T20:41:44.493Z,1.90
2018-02-02T20:44:11.958Z,1.80
2018-02-02T20:46:39.410Z,1.87
2018-02-02T20:49:06.822Z,1.93
2018-02-02T20:51:34.215Z,1.90
2018-02-02T20:54:01.685Z,1.97
2018-02-02T20:56:29.094Z,2.00
2018-02-02T20:58:56.514Z,1.53
2018-02-02T21:01:23.984Z,1.90
2018-02-02T21:03:51.930Z,1.80
2018-02-02T21:08:52.813Z,2.07
2018-02-02T21:11:20.313Z,1.60
2018-02-02T21:13:47.828Z,1.97
2018-02-02T21:16:15.277Z,1.70
2018-02-02T21:18:42.728Z,1.90
2018-02-02T21:21:10.166Z,1.70
2018-02-02T21:23:37.579Z,1.90
2018-02-02T21:26:04.985Z,1.80
2018-02-02T21:28:32.425Z,1.80
2018-02-02T21:30:59.889Z,1.57
2018-02-02T21:33:27.307Z,1.90
2018-02-02T21:35:54.721Z,1.80
2018-02-02T21:38:22.182Z,1.80
2018-02-02T21:40:49.623Z,1.67
2018-02-02T21:43:17.037Z,1.47
2018-02-02T21:45:44.437Z,1.90
2018-02-02T21:48:11.866Z,1.70
2018-02-02T21:50:39.253Z,1.80
2018-02-02T21:53:06.671Z,1.90
2018-02-02T21:55:34.049Z,1.80
2018-02-02T21:58:01.465Z,1.93
2018-02-02T22:00:28.880Z,1.80
2018-02-02T22:02:56.274Z,1.90
2018-02-02T22:05:23.705Z,1.63
2018-02-02T22:07:51.135Z,1.80
2018-02-02T22:10:18.545Z,1.60
2018-02-02T22:12:45.926Z,1.80
2018-02-02T22:15:13.364Z,1.70
2018-02-02T22:17:40.714Z,1.90
2018-02-02T22:20:08.046Z,1.90
2018-02-02T22:22:35.440Z,1.80
2018-02-02T22:25:02.818Z,1.77
2018-02-02T22:27:30.206Z,2.10
2018-02-02T22:29:57.558Z,1.90
2018-02-02T22:32:24.936Z,1.83
2018-02-02T22:34:52.286Z,1.80
2018-02-02T22:37:19.665Z,1.97
2018-02-02T22:39:47.083Z,1.90
2018-02-02T22:42:14.422Z,2.00
2018-02-02T22:44:41.758Z,2.40
2018-02-02T22:47:09.158Z,2.20
2018-02-02T22:49:36.537Z,2.03
2018-02-02T22:52:03.942Z,2.30
2018-02-02T22:54:31.296Z,2.10
2018-02-02T22:56:58.677Z,2.00
2018-02-02T22:59:26.015Z,1.87
2018-02-02T23:01:53.457Z,2.00
2018-02-02T23:04:20.842Z,2.10
2018-02-02T23:06:48.263Z,2.20
2018-02-02T23:09:15.658Z,2.33
2018-02-02T23:11:42.998Z,2.20
2018-02-02T23:14:10.371Z,2.17
2018-02-02T23:16:37.732Z,2.50
2018-02-02T23:19:05.156Z,2.30
2018-02-02T23:21:32.519Z,2.40
2018-02-02T23:23:59.875Z,2.50
2018-02-02T23:26:27.266Z,2.43
2018-02-02T23:28:54.602Z,2.50
2018-02-02T23:31:21.959Z,2.40
2018-02-02T23:33:49.345Z,2.30
2018-02-02T23:36:16.706Z,2.80
2018-02-02T23:38:44.054Z,2.47
2018-02-02T23:41:11.511Z,2.70
2018-02-02T23:43:38.875Z,2.40
2018-02-02T23:46:06.245Z,2.50
2018-02-02T23:48:33.646Z,2.97
2018-02-02T23:51:01.009Z,2.50
2018-02-02T23:53:28.414Z,2.80
2018-02-02T23:55:55.818Z,2.80
2018-02-02T23:58:23.194Z,2.60
